createdAt,value
2018-02-08T00:00:48.970Z,101597.20
2018-02-08T00:03:23.612Z,101602.05
2018-02-08T00:05:58.338Z,101596.80
2018-02-08T00:08:33.597Z,101604.73
2018-02-08T00:11:08.034Z,101597.73
2018-02-08T00:13:42.530Z,101603.47
2018-02-08T00:16:17.394Z,101604.85
2018-02-08T00:18:52.394Z,101603.53
2018-02-08T00:21:27.797Z,101610.16
2018-02-08T00:24:02.875Z,101601.86
2018-02-08T00:26:37.997Z,101606.25
2018-02-08T00:29:13.370Z,101600.61
2018-02-08T00:31:48.873Z,101601.45
2018-02-08T00:34:23.545Z,101605.03
2018-02-08T00:36:59.006Z,101606.78
2018-02-08T00:39:34.212Z,101605.51
2018-02-08T00:42:09.403Z,101613.00
2018-02-08T00:44:44.079Z,101612.17
2018-02-08T00:47:19.629Z,101608.23
2018-02-08T00:49:54.421Z,101603.45
2018-02-08T00:52:29.162Z,101605.66
2018-02-08T00:55:03.874Z,101598.64
2018-02-08T00:57:38.560Z,101596.47
2018-02-08T01:00:13.803Z,101606.13
2018-02-08T01:02:48.894Z,101603.55
2018-02-08T01:05:24.302Z,101599.17
2018-02-08T01:07:59.182Z,101597.88
2018-02-08T01:10:34.237Z,101604.50
2018-02-08T01:13:09.396Z,101600.12
2018-02-08T01:15:44.720Z,101600.59
2018-02-08T01:18:19.534Z,101598.44
2018-02-08T01:20:54.292Z,101595.81
2018-02-08T01:23:29.588Z,101591.06
2018-02-08T01:26:04.858Z,101599.37
2018-02-08T01:28:40.133Z,101593.27
2018-02-08T01:31:15.529Z,101592.44
2018-02-08T01:33:50.857Z,101593.31
2018-02-08T01:36:26.246Z,101593.77
2018-02-08T01:39:01.265Z,101602.09
2018-02-08T01:41:35.974Z,101591.58
2018-02-08T01:44:10.926Z,101596.41
2018-02-08T01:46:46.158Z,101583.70
2018-02-08T01:49:32.442Z,101591.61
2018-02-08T01:52:07.113Z,101595.98
2018-02-08T01:54:42.534Z,101593.81
2018-02-08T01:57:17.705Z,101594.69
2018-02-08T01:59:53.222Z,101592.95
2018-02-08T02:02:28.050Z,101595.53
2018-02-08T02:05:03.702Z,101583.30
2018-02-08T02:07:39.269Z,101594.27
2018-02-08T02:10:14.801Z,101587.30
2018-02-08T02:12:50.063Z,101592.56
2018-02-08T02:15:25.376Z,101587.30
2018-02-08T02:18:00.621Z,101587.30
2018-02-08T02:20:35.482Z,101580.73
2018-02-08T02:23:10.286Z,101589.98
2018-02-08T02:25:45.674Z,101600.53
2018-02-08T02:28:21.231Z,101584.76
2018-02-08T02:30:56.666Z,101587.87
2018-02-08T02:33:32.366Z,101584.83
2018-02-08T02:36:07.755Z,101581.77
2018-02-08T02:38:43.399Z,101582.23
2018-02-08T02:41:18.590Z,101584.42
2018-02-08T02:43:53.555Z,101589.24
2018-02-08T02:46:29.097Z,101583.56
2018-02-08T02:49:04.561Z,101586.19
2018-02-08T02:51:40.886Z,101593.23
2018-02-08T02:54:15.751Z,101588.86
2018-02-08T02:56:50.885Z,101595.89
2018-02-08T02:59:25.913Z,101593.67
2018-02-08T03:02:01.229Z,101591.93
2018-02-08T03:04:37.045Z,101594.12
2018-02-08T03:07:12.606Z,101600.70
2018-02-08T03:09:47.801Z,101601.55
2018-02-08T03:12:22.612Z,101596.77
2018-02-08T03:14:57.786Z,101602.02
2018-02-08T03:17:33.382Z,101606.37
2018-02-08T03:20:08.670Z,101602.90
2018-02-08T03:22:43.754Z,101604.23
2018-02-08T03:25:19.344Z,101600.76
2018-02-08T03:27:54.925Z,101611.69
2018-02-08T03:30:29.995Z,101612.14
2018-02-08T03:33:05.837Z,101603.37
2018-02-08T03:35:40.712Z,101609.94
2018-02-08T03:38:15.746Z,101612.56
2018-02-08T03:40:51.022Z,101612.58
2018-02-08T03:43:26.655Z,101611.69
2018-02-08T03:46:01.901Z,101609.95
2018-02-08T03:48:36.594Z,101612.13
2018-02-08T03:51:12.154Z,101617.84
2018-02-08T03:53:47.927Z,101621.33
2018-02-08T03:56:23.272Z,101606.47
2018-02-08T03:58:58.897Z,101618.72
2018-02-08T04:01:34.005Z,101616.53
2018-02-08T04:04:09.275Z,101619.16
2018-02-08T04:06:44.650Z,101617.83
2018-02-08T04:09:19.585Z,101616.52
2018-02-08T04:11:55.059Z,101610.40
2018-02-08T04:14:30.133Z,101606.47
2018-02-08T04:17:05.106Z,101609.97
2018-02-08T04:19:40.458Z,101613.47
2018-02-08T04:22:15.637Z,101617.40
2018-02-08T04:24:51.001Z,101616.97
2018-02-08T04:27:26.542Z,101613.94
2018-02-08T04:30:02.138Z,101620.47
2018-02-08T04:32:37.158Z,101622.69
2018-02-08T04:35:11.962Z,101619.62
2018-02-08T04:37:47.296Z,101617.84
2018-02-08T04:53:51.907Z,101617.88
2018-02-08T04:56:27.042Z,101627.50
2018-02-08T04:59:01.947Z,101627.50
2018-02-08T05:01:36.465Z,101624.88
2018-02-08T05:04:11.462Z,101625.75
2018-02-08T05:06:46.417Z,101638.90
2018-02-08T05:09:21.434Z,101634.09
2018-02-08T05:11:56.369Z,101627.10
2018-02-08T05:14:31.310Z,101633.66
2018-02-08T05:17:06.322Z,101627.08
2018-02-08T05:19:41.918Z,101626.64
2018-02-08T05:22:16.918Z,101625.78
2018-02-08T05:24:51.837Z,101627.09
2018-02-08T05:27:26.913Z,101624.91
2018-02-08T05:30:01.845Z,101627.98
2018-02-08T05:32:36.239Z,101631.04
2018-02-08T05:35:11.163Z,101625.77
2018-02-08T05:37:46.054Z,101628.83
2018-02-08T05:40:20.857Z,101633.20
2018-02-08T05:42:55.654Z,101634.55
2018-02-08T05:45:30.594Z,101632.34
2018-02-08T05:48:05.505Z,101636.27
2018-02-08T05:50:40.375Z,101636.27
2018-02-08T05:53:15.306Z,101648.50
2018-02-08T05:55:50.173Z,101643.26
2018-02-08T05:58:25.042Z,101638.02
2018-02-08T06:00:59.948Z,101639.33
2018-02-08T06:03:34.739Z,101642.39
2018-02-08T06:06:09.138Z,101645.45
2018-02-08T06:08:44.515Z,101646.78
2018-02-08T06:11:19.425Z,101644.56
2018-02-08T06:13:54.301Z,101653.33
2018-02-08T06:16:29.277Z,101653.77
2018-02-08T06:19:04.442Z,101654.63
2018-02-08T06:21:39.375Z,101665.57
2018-02-08T06:24:14.386Z,101677.34
2018-02-08T06:26:49.127Z,101668.61
2018-02-08T06:29:24.254Z,101673.83
2018-02-08T06:31:59.070Z,101679.96
2018-02-08T06:34:34.029Z,101679.54
2018-02-08T06:37:09.141Z,101678.66
2018-02-08T06:39:44.412Z,101678.66
2018-02-08T06:42:19.385Z,101666.41
2018-02-08T06:44:54.475Z,101671.66
2018-02-08T06:47:29.500Z,101683.90
2018-02-08T06:50:04.371Z,101680.84
2018-02-08T06:52:40.246Z,101686.52
2018-02-08T06:55:15.114Z,101683.89
2018-02-08T06:57:50.158Z,101687.81
2018-02-08T07:00:25.099Z,101689.12
2018-02-08T07:03:00.042Z,101692.61
2018-02-08T07:05:34.940Z,101700.48
2018-02-08T07:08:10.791Z,101700.92
2018-02-08T07:10:45.702Z,101700.02
2018-02-08T07:13:20.921Z,101703.08
2018-02-08T07:15:55.814Z,101704.85
2018-02-08T07:18:31.742Z,101703.11
2018-02-08T07:21:06.649Z,101700.05
2018-02-08T07:23:41.431Z,101704.02
2018-02-08T07:26:16.266Z,101697.45
2018-02-08T07:28:50.986Z,101699.23
2018-02-08T07:31:26.847Z,101707.98
2018-02-08T07:34:01.923Z,101713.66
2018-02-08T07:36:36.926Z,101702.73
2018-02-08T07:39:12.006Z,101708.42
2018-02-08T07:41:47.091Z,101714.14
2018-02-08T07:44:21.896Z,101714.99
2018-02-08T07:46:56.875Z,101719.39
2018-02-08T07:49:31.838Z,101715.01
2018-02-08T07:52:06.754Z,101716.77
2018-02-08T07:54:41.549Z,101720.71
2018-02-08T07:57:16.634Z,101717.62
2018-02-08T07:59:51.363Z,101720.25
2018-02-08T08:02:27.167Z,101718.01
2018-02-08T08:05:02.146Z,101724.53
2018-02-08T08:07:37.046Z,101718.34
2018-02-08T08:10:11.827Z,101722.23
2018-02-08T08:12:47.052Z,101719.50
2018-02-08T08:15:21.780Z,101720.72
2018-02-08T08:17:56.918Z,101719.73
2018-02-08T08:20:31.651Z,101713.02
2018-02-08T08:23:06.482Z,101707.56
2018-02-08T08:25:41.455Z,101717.53
2018-02-08T08:28:16.331Z,101724.41
2018-02-08T08:30:51.301Z,101724.66
2018-02-08T08:33:25.979Z,101729.31
2018-02-08T08:36:01.042Z,101730.38
2018-02-08T08:38:35.895Z,101734.08
2018-02-08T08:41:10.713Z,101733.05
2018-02-08T08:43:45.539Z,101732.05
2018-02-08T08:46:20.667Z,101731.42
2018-02-08T08:48:55.607Z,101740.95
2018-02-08T08:51:30.762Z,101742.94
2018-02-08T08:54:05.370Z,101743.86
2018-02-08T08:56:40.486Z,101739.02
2018-02-08T08:59:15.238Z,101736.52
2018-02-08T09:01:50.245Z,101739.41
2018-02-08T09:04:24.928Z,101743.22
2018-02-08T09:06:59.623Z,101733.70
2018-02-08T09:09:34.374Z,101732.41
2018-02-08T09:12:09.369Z,101730.09
2018-02-08T09:14:44.393Z,101727.78
2018-02-08T09:17:19.270Z,101723.76
2018-02-08T09:19:54.081Z,101713.80
2018-02-08T09:22:28.881Z,101719.09
2018-02-08T09:25:03.557Z,101724.93
2018-02-08T09:27:38.257Z,101717.58
2018-02-08T09:30:12.942Z,101719.86
2018-02-08T09:32:47.713Z,101722.92
2018-02-08T09:35:22.466Z,101721.23
2018-02-08T09:37:57.260Z,101719.38
2018-02-08T09:40:31.997Z,101728.69
2018-02-08T09:43:06.855Z,101724.28
2018-02-08T09:45:41.942Z,101718.63
2018-02-08T09:48:16.377Z,101724.44
2018-02-08T09:50:51.170Z,101719.07
2018-02-08T09:53:26.153Z,101728.22
2018-02-08T09:56:01.207Z,101726.88
2018-02-08T09:58:35.961Z,101726.77
2018-02-08T10:01:10.959Z,101724.73
2018-02-08T10:03:45.829Z,101729.53
2018-02-08T10:06:21.398Z,101726.83
2018-02-08T10:08:55.833Z,101727.75
2018-02-08T10:11:30.715Z,101718.91
2018-02-08T10:14:05.818Z,101729.73
2018-02-08T10:16:40.522Z,101725.88
2018-02-08T10:19:15.603Z,101727.19
2018-02-08T10:21:50.632Z,101718.80
2018-02-08T10:24:25.677Z,101717.02
2018-02-08T10:27:00.549Z,101719.65
2018-02-08T10:29:35.642Z,101721.81
2018-02-08T10:32:10.322Z,101715.81
2018-02-08T10:34:45.190Z,101718.77
2018-02-08T10:37:19.984Z,101708.93
2018-02-08T10:39:54.880Z,101714.58
2018-02-08T10:42:29.812Z,101710.76
2018-02-08T10:45:04.432Z,101710.55
2018-02-08T10:47:39.622Z,101714.30
2018-02-08T10:50:14.515Z,101701.17
2018-02-08T10:52:49.378Z,101702.01
2018-02-08T10:55:24.361Z,101706.28
2018-02-08T10:57:59.335Z,101702.15
2018-02-08T11:00:34.318Z,101705.20
2018-02-08T11:03:09.199Z,101705.16
2018-02-08T11:05:44.098Z,101710.68
2018-02-08T11:08:19.251Z,101709.16
2018-02-08T11:10:54.164Z,101707.91
2018-02-08T11:13:29.372Z,101702.44
2018-02-08T11:16:04.345Z,101697.67
2018-02-08T11:18:38.814Z,101700.36
2018-02-08T11:21:13.890Z,101699.34
2018-02-08T11:23:48.806Z,101701.52
2018-02-08T11:26:23.665Z,101696.26
2018-02-08T11:28:58.466Z,101693.36
2018-02-08T11:31:33.434Z,101710.06
2018-02-08T11:34:08.351Z,101698.28
2018-02-08T11:36:43.397Z,101699.62
2018-02-08T11:39:18.161Z,101703.95
2018-02-08T11:41:53.095Z,101705.48
2018-02-08T11:44:27.986Z,101706.62
2018-02-08T11:47:03.057Z,101695.23
2018-02-08T11:49:38.077Z,101701.08
2018-02-08T11:52:13.149Z,101694.95
2018-02-08T11:54:48.101Z,101695.00
2018-02-08T11:57:23.005Z,101703.05
2018-02-08T11:59:57.932Z,101692.83
2018-02-08T12:02:32.840Z,101689.30
2018-02-08T12:05:07.890Z,101689.81
2018-02-08T12:07:42.377Z,101680.87
2018-02-08T12:10:17.518Z,101686.02
2018-02-08T12:12:52.487Z,101676.97
2018-02-08T12:15:27.524Z,101681.90
2018-02-08T12:18:02.693Z,101678.53
2018-02-08T12:20:37.605Z,101683.04
2018-02-08T12:23:12.798Z,101680.14
2018-02-08T12:25:47.367Z,101676.38
2018-02-08T12:28:22.042Z,101664.84
2018-02-08T12:30:56.930Z,101660.47
2018-02-08T12:33:31.463Z,101663.25
2018-02-08T12:36:06.445Z,101659.41
2018-02-08T12:38:41.354Z,101657.61
2018-02-08T12:41:16.234Z,101660.70
2018-02-08T12:43:51.029Z,101656.39
2018-02-08T12:46:25.966Z,101654.64
2018-02-08T12:49:00.837Z,101647.69
2018-02-08T12:51:35.855Z,101656.73
2018-02-08T12:54:10.822Z,101653.48
2018-02-08T12:56:45.811Z,101648.22
2018-02-08T12:59:20.848Z,101647.65
2018-02-08T13:01:55.786Z,101642.91
2018-02-08T13:04:30.486Z,101637.85
2018-02-08T13:07:05.437Z,101625.30
2018-02-08T13:09:40.419Z,101626.55
2018-02-08T13:12:15.430Z,101620.75
2018-02-08T13:14:50.398Z,101618.64
2018-02-08T13:17:25.377Z,101623.27
2018-02-08T13:20:00.357Z,101622.56
2018-02-08T13:22:35.406Z,101614.83
2018-02-08T13:25:10.234Z,101610.23
2018-02-08T13:27:45.418Z,101618.80
2018-02-08T13:30:20.401Z,101610.84
2018-02-08T13:32:55.528Z,101617.73
2018-02-08T13:35:30.754Z,101605.11
2018-02-08T13:38:05.645Z,101605.49
2018-02-08T13:40:45.003Z,101602.38
2018-02-08T13:43:19.537Z,101599.39
2018-02-08T13:45:54.706Z,101596.20
2018-02-08T13:48:31.428Z,101594.94
2018-02-08T14:04:39.013Z,101592.70
2018-02-08T14:07:13.864Z,101592.89
2018-02-08T14:09:48.634Z,101592.82
2018-02-08T14:12:23.610Z,101584.00
2018-02-08T14:14:58.576Z,101598.46
2018-02-08T14:17:33.747Z,101598.77
2018-02-08T14:20:08.842Z,101601.37
2018-02-08T14:22:43.798Z,101595.72
2018-02-08T14:25:18.561Z,101597.69
2018-02-08T14:27:53.631Z,101582.95
2018-02-08T14:30:28.561Z,101575.36
2018-02-08T14:33:03.634Z,101576.77
2018-02-08T14:35:38.765Z,101574.97
2018-02-08T14:38:13.462Z,101575.02
2018-02-08T14:40:48.223Z,101571.80
2018-02-08T14:43:22.970Z,101572.09
2018-02-08T14:45:57.878Z,101571.36
2018-02-08T14:48:32.810Z,101565.09
2018-02-08T14:51:07.778Z,101564.45
2018-02-08T14:53:42.790Z,101565.17
2018-02-08T14:56:17.730Z,101576.25
2018-02-08T14:58:52.799Z,101573.89
2018-02-08T15:01:27.617Z,101565.37
2018-02-08T15:04:02.645Z,101561.02
2018-02-08T15:06:37.734Z,101562.48
2018-02-08T15:09:12.664Z,101547.95
2018-02-08T15:11:47.624Z,101545.25
2018-02-08T15:14:22.394Z,101539.56
2018-02-08T15:16:57.282Z,101542.43
2018-02-08T15:19:32.055Z,101542.65
2018-02-08T15:22:07.194Z,101541.09
2018-02-08T15:24:42.197Z,101549.61
2018-02-08T15:27:17.195Z,101550.84
2018-02-08T15:29:51.973Z,101560.14
2018-02-08T15:32:26.920Z,101559.91
2018-02-08T15:35:01.664Z,101561.59
2018-02-08T15:37:36.665Z,101559.78
2018-02-08T15:40:11.416Z,101560.12
2018-02-08T15:42:46.334Z,101554.06
2018-02-08T15:45:21.353Z,101561.11
2018-02-08T15:47:56.202Z,101558.23
2018-02-08T15:50:31.018Z,101556.31
2018-02-08T15:53:05.870Z,101552.79
2018-02-08T15:55:40.214Z,101551.23
2018-02-08T15:58:15.108Z,101547.81
2018-02-08T16:00:49.703Z,101553.66
2018-02-08T16:03:24.542Z,101548.74
2018-02-08T16:05:59.630Z,101556.98
2018-02-08T16:08:34.437Z,101561.28
2018-02-08T16:11:09.162Z,101563.23
2018-02-08T16:13:43.932Z,101569.58
2018-02-08T16:16:18.568Z,101562.71
2018-02-08T16:18:53.455Z,101570.12
2018-02-08T16:21:28.162Z,101569.12
2018-02-08T16:24:02.963Z,101566.81
2018-02-08T16:26:37.925Z,101572.81
2018-02-08T16:29:12.694Z,101573.10
2018-02-08T16:31:47.638Z,101576.75
2018-02-08T16:34:22.526Z,101571.62
2018-02-08T16:36:57.466Z,101573.64
2018-02-08T16:39:32.375Z,101572.75
2018-02-08T16:42:07.135Z,101570.31
2018-02-08T16:44:42.068Z,101578.50
2018-02-08T16:47:16.957Z,101568.23
2018-02-08T16:49:51.726Z,101575.83
2018-02-08T16:52:26.102Z,101577.88
2018-02-08T16:55:01.108Z,101587.03
2018-02-08T16:57:36.076Z,101582.98
2018-02-08T17:00:10.788Z,101583.27
2018-02-08T17:02:45.566Z,101578.30
2018-02-08T17:05:20.197Z,101579.27
2018-02-08T17:07:54.989Z,101573.09
2018-02-08T17:10:29.870Z,101578.84
2018-02-08T17:13:04.246Z,101578.08
2018-02-08T17:15:39.227Z,101576.94
2018-02-08T17:18:13.967Z,101576.37
2018-02-08T17:20:48.713Z,101581.66
2018-02-08T17:23:23.565Z,101580.09
2018-02-08T17:25:58.382Z,101586.03
2018-02-08T17:28:33.041Z,101586.42
2018-02-08T17:31:07.828Z,101577.05
2018-02-08T17:33:42.610Z,101579.66
2018-02-08T17:36:17.385Z,101574.81
2018-02-08T17:38:52.065Z,101583.43
2018-02-08T17:41:27.137Z,101579.70
2018-02-08T17:44:01.971Z,101574.70
2018-02-08T17:46:36.764Z,101577.99
2018-02-08T17:49:11.690Z,101574.55
2018-02-08T17:51:46.302Z,101578.53
2018-02-08T17:54:21.104Z,101580.26
2018-02-08T17:56:56.124Z,101576.64
2018-02-08T17:59:30.830Z,101582.13
2018-02-08T18:02:05.653Z,101577.48
2018-02-08T18:04:40.377Z,101578.24
2018-02-08T18:07:15.269Z,101574.58
2018-02-08T18:09:50.178Z,101572.94
2018-02-08T18:12:24.982Z,101574.66
2018-02-08T18:14:59.768Z,101568.73
2018-02-08T18:17:34.764Z,101579.36
2018-02-08T18:20:09.499Z,101579.88
2018-02-08T18:22:44.395Z,101581.66
2018-02-08T18:25:19.000Z,101580.11
2018-02-08T18:27:53.782Z,101584.13
2018-02-08T18:30:28.598Z,101580.25
2018-02-08T18:33:03.320Z,101576.28
2018-02-08T18:35:38.228Z,101574.58
2018-02-08T18:38:13.115Z,101576.04
2018-02-08T18:40:48.083Z,101576.70
2018-02-08T18:43:22.865Z,101566.69
2018-02-08T18:45:57.903Z,101569.16
2018-02-08T18:48:32.586Z,101570.62
2018-02-08T18:51:07.371Z,101572.59
2018-02-08T18:53:42.261Z,101570.87
2018-02-08T18:56:17.146Z,101571.59
2018-02-08T18:58:52.435Z,101570.17
2018-02-08T19:01:27.278Z,101576.33
2018-02-08T19:04:02.015Z,101565.73
2018-02-08T19:06:36.830Z,101568.09
2018-02-08T19:09:11.489Z,101569.01
2018-02-08T19:11:46.193Z,101560.30
2018-02-08T19:14:21.042Z,101570.05
2018-02-08T19:16:55.972Z,101566.09
2018-02-08T19:19:30.817Z,101563.06
2018-02-08T19:22:05.692Z,101561.05
2018-02-08T19:24:40.558Z,101563.80
2018-02-08T19:27:15.389Z,101566.97
2018-02-08T19:29:50.124Z,101561.89
2018-02-08T19:32:25.458Z,101566.06
2018-02-08T19:35:00.398Z,101564.30
2018-02-08T19:37:35.142Z,101565.59
2018-02-08T19:40:09.968Z,101566.33
2018-02-08T19:42:45.427Z,101567.02
2018-02-08T19:45:20.112Z,101564.08
2018-02-08T19:47:55.078Z,101569.24
2018-02-08T19:50:29.559Z,101563.41
2018-02-08T19:53:04.206Z,101558.63
2018-02-08T19:55:39.314Z,101569.77
2018-02-08T19:58:13.988Z,101568.86
2018-02-08T20:00:48.983Z,101564.41
2018-02-08T20:03:23.722Z,101555.12
2018-02-08T20:05:58.841Z,101567.20
2018-02-08T20:08:33.595Z,101564.77
2018-02-08T20:11:08.419Z,101558.75
2018-02-08T20:13:43.386Z,101559.77
2018-02-08T20:16:18.074Z,101563.14
2018-02-08T20:18:53.242Z,101553.17
2018-02-08T20:21:28.203Z,101557.80
2018-02-08T20:24:03.186Z,101556.99
2018-02-08T20:26:38.010Z,101557.58
2018-02-08T20:29:12.729Z,101552.74
2018-02-08T20:31:47.324Z,101553.62
2018-02-08T20:34:22.101Z,101554.13
2018-02-08T20:37:01.738Z,101548.89
2018-02-08T20:39:36.868Z,101550.36
2018-02-08T20:42:17.094Z,101546.02
2018-02-08T20:44:51.495Z,101534.67
2018-02-08T20:47:26.513Z,101544.05
2018-02-08T20:50:04.902Z,101546.80
2018-02-08T20:52:39.275Z,101539.88
2018-02-08T20:55:27.242Z,101537.34
2018-02-08T20:58:11.122Z,101534.80
2018-02-08T21:00:45.978Z,101528.31
2018-02-08T21:03:21.309Z,101532.34
2018-02-08T21:05:56.915Z,101528.86
2018-02-08T21:08:31.977Z,101530.14
2018-02-08T21:11:07.257Z,101531.13
2018-02-08T21:13:42.211Z,101527.72
2018-02-08T21:16:17.301Z,101521.16
2018-02-08T21:18:52.320Z,101518.58
2018-02-08T21:21:27.462Z,101518.20
2018-02-08T21:24:02.089Z,101520.02
2018-02-08T21:26:37.074Z,101520.50
2018-02-08T21:29:12.378Z,101518.26
2018-02-08T21:31:47.534Z,101522.63
2018-02-08T21:34:22.507Z,101523.48
2018-02-08T21:36:57.850Z,101517.36
2018-02-08T21:39:32.525Z,101517.77
2018-02-08T21:42:07.671Z,101513.41
2018-02-08T21:44:42.814Z,101508.67
2018-02-08T21:47:17.688Z,101498.72
2018-02-08T21:49:52.752Z,101501.83
2018-02-08T21:52:27.742Z,101494.83
2018-02-08T21:55:03.108Z,101501.48
2018-02-08T21:57:38.623Z,101489.73
2018-02-08T22:00:13.550Z,101491.16
2018-02-08T22:02:48.874Z,101493.83
2018-02-08T22:05:23.616Z,101496.04
2018-02-08T22:07:58.613Z,101485.98
2018-02-08T22:10:33.836Z,101485.59
2018-02-08T22:13:09.304Z,101489.59
2018-02-08T22:15:44.435Z,101483.41
2018-02-08T22:18:19.534Z,101476.41
2018-02-08T22:20:54.515Z,101480.45
2018-02-08T22:23:29.376Z,101481.34
2018-02-08T22:26:04.402Z,101476.59
2018-02-08T22:28:39.518Z,101471.31
2018-02-08T22:31:14.881Z,101471.30
2018-02-08T22:33:50.133Z,101469.56
2018-02-08T22:36:25.618Z,101457.36
2018-02-08T22:39:00.174Z,101458.77
2018-02-08T22:41:35.445Z,101464.54
2018-02-08T22:44:10.366Z,101466.36
2018-02-08T22:46:45.501Z,101459.28
2018-02-08T22:49:20.574Z,101452.68
2018-02-08T22:51:56.174Z,101458.88
2018-02-08T22:54:31.217Z,101446.76
2018-02-08T22:57:06.358Z,101458.19
2018-02-08T22:59:41.683Z,101461.76
2018-02-08T23:02:16.383Z,101466.64
2018-02-08T23:04:51.242Z,101462.70
2018-02-08T23:07:26.218Z,101462.72
2018-02-08T23:10:01.247Z,101456.55
2018-02-08T23:12:36.346Z,101460.13
2018-02-08T23:15:11.325Z,101461.46
2018-02-08T23:17:45.695Z,101456.20
2018-02-08T23:20:20.785Z,101455.95
2018-02-08T23:22:55.473Z,101456.45
2018-02-08T23:25:30.554Z,101459.53
2018-02-08T23:28:05.343Z,101455.08
2018-02-08T23:30:40.617Z,101459.47
2018-02-08T23:33:15.790Z,101455.95
2018-02-08T23:35:50.769Z,101454.20
2018-02-08T23:38:25.773Z,101454.20
2018-02-08T23:41:01.341Z,101451.17
2018-02-08T23:43:36.499Z,101447.68
2018-02-08T23:46:11.502Z,101445.94
2018-02-08T23:48:46.506Z,101442.39
2018-02-08T23:51:21.217Z,101442.81
2018-02-08T23:53:56.393Z,101438.89
2018-02-08T23:56:31.673Z,101438.89
2018-02-08T23:59:06.366Z,101441.11
